sensor_id;sensor_type;location;lat;lon;timestamp;pressure;altitude;pressure_sealevel;temperature;humidity
70900;BME280;67902;52.154;5.430;2023-03-21T00:00:41;101716.66;;;9.20;96.98
70900;BME280;67902;52.154;5.430;2023-03-21T00:03:07;101720.16;;;9.21;97.07
70900;BME280;67902;52.154;5.430;2023-03-21T00:05:41;101723.09;;;9.19;96.76
70900;BME280;67902;52.154;5.430;2023-03-21T00:08:08;101715.19;;;9.18;96.71
70900;BME280;67902;52.154;5.430;2023-03-21T00:10:36;101716.84;;;9.19;96.78
70900;BME280;67902;52.154;5.430;2023-03-21T00:13:14;101717.69;;;9.19;97.12
70900;BME280;67902;52.154;5.430;2023-03-21T00:15:41;101717.69;;;9.19;96.66
70900;BME280;67902;52.154;5.430;2023-03-21T00:18:37;101712.28;;;9.19;96.58
70900;BME280;67902;52.154;5.430;2023-03-21T00:21:12;101716.66;;;9.20;96.17
70900;BME280;67902;52.154;5.430;2023-03-21T00:24:00;101713.31;;;9.18;96.96
70900;BME280;67902;52.154;5.430;2023-03-21T00:26:27;101707.09;;;9.18;96.93
70900;BME280;67902;52.154;5.430;2023-03-21T00:28:53;101706.28;;;9.17;96.83
70900;BME280;67902;52.154;5.430;2023-03-21T00:31:20;101697.53;;;9.15;97.37
70900;BME280;67902;52.154;5.430;2023-03-21T00:33:46;101700.22;;;9.15;97.09
70900;BME280;67902;52.154;5.430;2023-03-21T00:36:14;101704.84;;;9.15;97.18
70900;BME280;67902;52.154;5.430;2023-03-21T00:38:41;101701.31;;;9.14;97.20
70900;BME280;67902;52.154;5.430;2023-03-21T00:41:10;101699.44;;;9.15;96.34
70900;BME280;67902;52.154;5.430;2023-03-21T00:43:51;101694.22;;;9.13;97.01
70900;BME280;67902;52.154;5.430;2023-03-21T00:46:20;101700.66;;;9.12;96.85
70900;BME280;67902;52.154;5.430;2023-03-21T00:48:50;101701.72;;;9.11;97.37
70900;BME280;67902;52.154;5.430;2023-03-21T00:51:19;101690.91;;;9.11;96.85
70900;BME280;67902;52.154;5.430;2023-03-21T00:53:55;101691.94;;;9.10;96.74
70900;BME280;67902;52.154;5.430;2023-03-21T00:56:22;101694.66;;;9.10;97.20
70900;BME280;67902;52.154;5.430;2023-03-21T00:58:48;101690.31;;;9.09;96.54
70900;BME280;67902;52.154;5.430;2023-03-21T01:01:15;101679.50;;;9.09;97.24
70900;BME280;67902;52.154;5.430;2023-03-21T01:03:42;101675.13;;;9.08;96.61
70900;BME280;67902;52.154;5.430;2023-03-21T01:06:13;101674.28;;;9.08;97.52
70900;BME280;67902;52.154;5.430;2023-03-21T01:08:41;101666.41;;;9.06;97.37
70900;BME280;67902;52.154;5.430;2023-03-21T01:11:26;101667.22;;;9.07;97.54
70900;BME280;67902;52.154;5.430;2023-03-21T01:13:53;101659.13;;;9.07;97.68
70900;BME280;67902;52.154;5.430;2023-03-21T01:16:37;101653.72;;;9.07;97.06
70900;BME280;67902;52.154;5.430;2023-03-21T01:19:05;101659.13;;;9.07;97.28
70900;BME280;67902;52.154;5.430;2023-03-21T01:21:37;101657.47;;;9.06;97.29
70900;BME280;67902;52.154;5.430;2023-03-21T01:24:04;101656.66;;;9.05;97.00
70900;BME280;67902;52.154;5.430;2023-03-21T01:26:31;101661.00;;;9.06;97.27
70900;BME280;67902;52.154;5.430;2023-03-21T01:28:57;101651.25;;;9.05;97.36
70900;BME280;67902;52.154;5.430;2023-03-21T01:31:24;101651.25;;;9.05;97.57
70900;BME280;67902;52.154;5.430;2023-03-21T01:33:51;101645.00;;;9.05;97.09
70900;BME280;67902;52.154;5.430;2023-03-21T01:36:20;101648.53;;;9.05;97.45
70900;BME280;67902;52.154;5.430;2023-03-21T01:38:49;101648.53;;;9.05;97.62
70900;BME280;67902;52.154;5.430;2023-03-21T01:41:24;101638.56;;;9.06;97.15
70900;BME280;67902;52.154;5.430;2023-03-21T01:44:05;101640.44;;;9.05;96.67
70900;BME280;67902;52.154;5.430;2023-03-21T01:46:41;101640.44;;;9.05;97.59
70900;BME280;67902;52.154;5.430;2023-03-21T01:49:26;101636.06;;;9.04;97.74
70900;BME280;67902;52.154;5.430;2023-03-21T01:51:57;101633.38;;;9.04;97.03
70900;BME280;67902;52.154;5.430;2023-03-21T01:54:38;101637.13;;;9.03;97.82
70900;BME280;67902;52.154;5.430;2023-03-21T01:57:07;101630.88;;;9.03;97.29
70900;BME280;67902;52.154;5.430;2023-03-21T01:59:37;101623.81;;;9.02;97.20
70900;BME280;67902;52.154;5.430;2023-03-21T02:02:14;101627.34;;;9.02;97.11
70900;BME280;67902;52.154;5.430;2023-03-21T02:04:43;101624.03;;;9.00;97.19
70900;BME280;67902;52.154;5.430;2023-03-21T02:07:33;101615.09;;;9.00;97.49
70900;BME280;67902;52.154;5.430;2023-03-21T02:10:03;101605.34;;;8.99;97.81
70900;BME280;67902;52.154;5.430;2023-03-21T02:12:32;101612.59;;;8.98;97.63
70900;BME280;67902;52.154;5.430;2023-03-21T02:14:59;101601.81;;;8.98;97.15
70900;BME280;67902;52.154;5.430;2023-03-21T02:17:49;101601.81;;;8.98;98.02
70900;BME280;67902;52.154;5.430;2023-03-21T02:23:42;101603.91;;;8.96;97.00
70900;BME280;67902;52.154;5.430;2023-03-21T02:26:45;101593.94;;;8.97;97.20
70900;BME280;67902;52.154;5.430;2023-03-21T02:30:05;101591.22;;;8.97;97.13
70900;BME280;67902;52.154;5.430;2023-03-21T02:38:05;101589.78;;;8.94;97.01
70900;BME280;67902;52.154;5.430;2023-03-21T02:40:43;101581.69;;;8.94;96.63
70900;BME280;67902;52.154;5.430;2023-03-21T02:43:22;101584.59;;;8.93;96.90
70900;BME280;67902;52.154;5.430;2023-03-21T02:45:57;101580.00;;;8.93;97.19
70900;BME280;67902;52.154;5.430;2023-03-21T02:48:31;101576.47;;;8.93;97.13
70900;BME280;67902;52.154;5.430;2023-03-21T02:51:17;101576.47;;;8.93;97.61
70900;BME280;67902;52.154;5.430;2023-03-21T02:53:50;101576.72;;;8.91;97.25
70900;BME280;67902;52.154;5.430;2023-03-21T02:56:39;101583.78;;;8.92;96.81
70900;BME280;67902;52.154;5.430;2023-03-21T02:59:06;101568.59;;;8.91;97.59
70900;BME280;67902;52.154;5.430;2023-03-21T03:01:34;101565.06;;;8.91;97.29
70900;BME280;67902;52.154;5.430;2023-03-21T03:04:01;101565.31;;;8.89;97.27
70900;BME280;67902;52.154;5.430;2023-03-21T03:07:00;101567.78;;;8.91;97.56
70900;BME280;67902;52.154;5.430;2023-03-21T03:09:42;101565.69;;;8.93;97.47
70900;BME280;67902;52.154;5.430;2023-03-21T03:12:30;101562.97;;;8.93;97.46
70900;BME280;67902;52.154;5.430;2023-03-21T03:18:28;101561.09;;;8.93;97.26
70900;BME280;67902;52.154;5.430;2023-03-21T03:23:45;101557.81;;;8.91;97.16
70900;BME280;67902;52.154;5.430;2023-03-21T03:26:18;101556.97;;;8.91;96.73
70900;BME280;67902;52.154;5.430;2023-03-21T03:28:50;101567.56;;;8.92;97.21
70900;BME280;67902;52.154;5.430;2023-03-21T03:31:23;101563.19;;;8.91;96.89
70900;BME280;67902;52.154;5.430;2023-03-21T03:33:54;101558.84;;;8.90;97.08
70900;BME280;67902;52.154;5.430;2023-03-21T03:36:26;101559.91;;;8.89;96.97
70900;BME280;67902;52.154;5.430;2023-03-21T03:38:59;101559.91;;;8.89;96.79
70900;BME280;67902;52.154;5.430;2023-03-21T03:41:30;101559.91;;;8.89;97.72
70900;BME280;67902;52.154;5.430;2023-03-21T03:44:19;101553.84;;;8.87;97.18
70900;BME280;67902;52.154;5.430;2023-03-21T03:46:47;101552.81;;;8.88;97.10
70900;BME280;67902;52.154;5.430;2023-03-21T03:49:20;101551.16;;;8.87;97.21
70900;BME280;67902;52.154;5.430;2023-03-21T03:52:01;101543.91;;;8.88;96.90
70900;BME280;67902;52.154;5.430;2023-03-21T03:54:33;101544.13;;;8.86;96.78
70900;BME280;67902;52.154;5.430;2023-03-21T03:57:03;101542.44;;;8.85;96.98
70900;BME280;67902;52.154;5.430;2023-03-21T03:59:33;101544.31;;;8.85;97.08
70900;BME280;67902;52.154;5.430;2023-03-21T04:02:00;101544.13;;;8.86;96.27
70900;BME280;67902;52.154;5.430;2023-03-21T04:04:27;101541.63;;;8.85;96.59
70900;BME280;67902;52.154;5.430;2023-03-21T04:06:54;101543.53;;;8.84;97.08
70900;BME280;67902;52.154;5.430;2023-03-21T04:09:24;101538.13;;;8.84;97.19
70900;BME280;67902;52.154;5.430;2023-03-21T04:12:08;101535.41;;;8.84;96.82
70900;BME280;67902;52.154;5.430;2023-03-21T04:14:35;101539.16;;;8.83;97.49
70900;BME280;67902;52.154;5.430;2023-03-21T04:17:10;101539.16;;;8.83;96.51
70900;BME280;67902;52.154;5.430;2023-03-21T04:19:36;101536.44;;;8.83;97.20
70900;BME280;67902;52.154;5.430;2023-03-21T04:22:03;101532.09;;;8.82;97.31
70900;BME280;67902;52.154;5.430;2023-03-21T04:24:29;101525.66;;;8.83;96.63
70900;BME280;67902;52.154;5.430;2023-03-21T04:26:59;101532.09;;;8.82;96.90
70900;BME280;67902;52.154;5.430;2023-03-21T04:29:26;101528.53;;;8.82;96.68
70900;BME280;67902;52.154;5.430;2023-03-21T04:31:55;101537.47;;;8.82;97.18
70900;BME280;67902;52.154;5.430;2023-03-21T04:34:22;101531.25;;;8.82;96.73
70900;BME280;67902;52.154;5.430;2023-03-21T04:36:49;101527.09;;;8.79;97.21
70900;BME280;67902;52.154;5.430;2023-03-21T04:39:17;101534.19;;;8.80;96.45
70900;BME280;67902;52.154;5.430;2023-03-21T04:41:44;101531.69;;;8.79;97.44
70900;BME280;67902;52.154;5.430;2023-03-21T04:44:13;101530.03;;;8.78;97.28
70900;BME280;67902;52.154;5.430;2023-03-21T04:46:41;101524.63;;;8.78;96.91
70900;BME280;67902;52.154;5.430;2023-03-21T04:49:08;101518.41;;;8.77;97.37
70900;BME280;67902;52.154;5.430;2023-03-21T04:51:35;101519.44;;;8.76;97.20
70900;BME280;67902;52.154;5.430;2023-03-21T04:54:02;101519.44;;;8.76;97.50
70900;BME280;67902;52.154;5.430;2023-03-21T04:56:29;101515.09;;;8.75;97.38
70900;BME280;67902;52.154;5.430;2023-03-21T04:59:03;101520.50;;;8.75;97.50
70900;BME280;67902;52.154;5.430;2023-03-21T05:01:30;101512.59;;;8.73;97.63
70900;BME280;67902;52.154;5.430;2023-03-21T05:03:58;101517.16;;;8.73;97.00
70900;BME280;67902;52.154;5.430;2023-03-21T05:06:25;101524.66;;;8.71;96.52
70900;BME280;67902;52.154;5.430;2023-03-21T05:08:54;101523.03;;;8.70;96.85
70900;BME280;67902;52.154;5.430;2023-03-21T05:11:21;101525.09;;;8.68;97.31
70900;BME280;67902;52.154;5.430;2023-03-21T05:13:48;101524.06;;;8.69;96.44
70900;BME280;67902;52.154;5.430;2023-03-21T05:16:14;101525.91;;;8.68;96.56
70900;BME280;67902;52.154;5.430;2023-03-21T05:18:41;101527.78;;;8.68;96.58
70900;BME280;67902;52.154;5.430;2023-03-21T05:21:07;101524.25;;;8.67;96.93
70900;BME280;67902;52.154;5.430;2023-03-21T05:23:36;101523.44;;;8.67;97.02
70900;BME280;67902;52.154;5.430;2023-03-21T05:26:06;101514.72;;;8.65;96.69
70900;BME280;67902;52.154;5.430;2023-03-21T05:28:33;101516.63;;;8.64;96.84
70900;BME280;67902;52.154;5.430;2023-03-21T05:31:02;101518.47;;;8.64;96.88
70900;BME280;67902;52.154;5.430;2023-03-21T05:33:29;101509.75;;;8.62;96.75
70900;BME280;67902;52.154;5.430;2023-03-21T05:35:56;101507.28;;;8.60;97.04
70900;BME280;67902;52.154;5.430;2023-03-21T05:38:23;101505.59;;;8.59;96.87
70900;BME280;67902;52.154;5.430;2023-03-21T05:40:52;101508.53;;;8.58;97.10
70900;BME280;67902;52.154;5.430;2023-03-21T05:43:19;101506.66;;;8.58;97.58
70900;BME280;67902;52.154;5.430;2023-03-21T05:45:45;101511.22;;;8.58;96.79
70900;BME280;67902;52.154;5.430;2023-03-21T05:48:13;101513.94;;;8.58;96.77
70900;BME280;67902;52.154;5.430;2023-03-21T05:50:40;101510.16;;;8.59;96.78
70900;BME280;67902;52.154;5.430;2023-03-21T05:53:06;101510.16;;;8.59;97.01
70900;BME280;67902;52.154;5.430;2023-03-21T05:55:33;101508.09;;;8.61;96.44
70900;BME280;67902;52.154;5.430;2023-03-21T05:57:59;101498.13;;;8.61;96.48
70900;BME280;67902;52.154;5.430;2023-03-21T06:00:26;101501.66;;;8.62;96.96
70900;BME280;67902;52.154;5.430;2023-03-21T06:02:55;101492.75;;;8.61;96.61
70900;BME280;67902;52.154;5.430;2023-03-21T06:05:22;101497.06;;;8.62;96.65
70900;BME280;67902;52.154;5.430;2023-03-21T06:07:48;101498.94;;;8.62;97.24
70900;BME280;67902;52.154;5.430;2023-03-21T06:10:15;101502.47;;;8.62;96.29
70900;BME280;67902;52.154;5.430;2023-03-21T06:12:43;101496.25;;;8.62;96.70
70900;BME280;67902;52.154;5.430;2023-03-21T06:15:12;101499.56;;;8.64;95.98
70900;BME280;67902;52.154;5.430;2023-03-21T06:17:39;101492.31;;;8.64;95.97
70900;BME280;67902;52.154;5.430;2023-03-21T06:20:07;101498.31;;;8.66;95.77
70900;BME280;67902;52.154;5.430;2023-03-21T06:22:34;101497.47;;;8.66;96.52
70900;BME280;67902;52.154;5.430;2023-03-21T06:25:01;101491.06;;;8.67;96.07
70900;BME280;67902;52.154;5.430;2023-03-21T06:27:28;101497.06;;;8.69;95.96
70900;BME280;67902;52.154;5.430;2023-03-21T06:29:54;101497.88;;;8.69;96.62
70900;BME280;67902;52.154;5.430;2023-03-21T06:32:23;101500.59;;;8.69;96.69
70900;BME280;67902;52.154;5.430;2023-03-21T06:34:49;101499.31;;;8.72;96.38
70900;BME280;67902;52.154;5.430;2023-03-21T06:37:17;101498.06;;;8.74;96.61
70900;BME280;67902;52.154;5.430;2023-03-21T06:39:43;101498.66;;;8.77;95.84
70900;BME280;67902;52.154;5.430;2023-03-21T06:42:10;101493.28;;;8.77;95.95
70900;BME280;67902;52.154;5.430;2023-03-21T06:44:37;101501.97;;;8.79;95.88
70900;BME280;67902;52.154;5.430;2023-03-21T06:47:04;101500.09;;;8.79;96.12
70900;BME280;67902;52.154;5.430;2023-03-21T06:49:31;101500.94;;;8.80;95.49
70900;BME280;67902;52.154;5.430;2023-03-21T06:51:57;101501.78;;;8.80;96.05
70900;BME280;67902;52.154;5.430;2023-03-21T06:54:23;101499.69;;;8.82;95.96
70900;BME280;67902;52.154;5.430;2023-03-21T06:56:50;101505.91;;;8.83;95.54
70900;BME280;67902;52.154;5.430;2023-03-21T06:59:16;101509.44;;;8.83;95.52
70900;BME280;67902;52.154;5.430;2023-03-21T07:01:43;101497.63;;;8.84;94.87
70900;BME280;67902;52.154;5.430;2023-03-21T07:04:10;101500.91;;;8.86;95.91
70900;BME280;67902;52.154;5.430;2023-03-21T07:06:36;101499.66;;;8.89;95.39
70900;BME280;67902;52.154;5.430;2023-03-21T07:09:04;101504.81;;;8.90;95.64
70900;BME280;67902;52.154;5.430;2023-03-21T07:11:31;101505.44;;;8.92;95.66
70900;BME280;67902;52.154;5.430;2023-03-21T07:13:59;101496.09;;;8.95;95.78
70900;BME280;67902;52.154;5.430;2023-03-21T07:16:26;101502.94;;;8.97;95.58
70900;BME280;67902;52.154;5.430;2023-03-21T07:18:53;101502.50;;;9.00;96.17
70900;BME280;67902;52.154;5.430;2023-03-21T07:21:19;101504.13;;;9.01;96.07
70900;BME280;67902;52.154;5.430;2023-03-21T07:23:46;101513.69;;;9.04;94.91
70900;BME280;67902;52.154;5.430;2023-03-21T07:26:12;101507.03;;;9.06;95.08
70900;BME280;67902;52.154;5.430;2023-03-21T07:28:41;101495.16;;;9.07;94.88
70900;BME280;67902;52.154;5.430;2023-03-21T07:31:12;101512.00;;;9.09;95.06
70900;BME280;67902;52.154;5.430;2023-03-21T07:33:40;101509.91;;;9.11;94.96
70900;BME280;67902;52.154;5.430;2023-03-21T07:36:13;101507.19;;;9.11;95.33
70900;BME280;67902;52.154;5.430;2023-03-21T07:38:44;101509.91;;;9.11;95.04
70900;BME280;67902;52.154;5.430;2023-03-21T07:41:11;101506.13;;;9.12;95.13
70900;BME280;67902;52.154;5.430;2023-03-21T07:43:38;101504.91;;;9.15;94.83
70900;BME280;67902;52.154;5.430;2023-03-21T07:46:07;101504.00;;;9.21;95.09
70900;BME280;67902;52.154;5.430;2023-03-21T07:48:33;101497.31;;;9.23;94.26
70900;BME280;67902;52.154;5.430;2023-03-21T07:51:00;101503.97;;;9.27;94.91
70900;BME280;67902;52.154;5.430;2023-03-21T07:53:27;101499.78;;;9.31;94.75
70900;BME280;67902;52.154;5.430;2023-03-21T07:55:55;101502.06;;;9.35;94.68
70900;BME280;67902;52.154;5.430;2023-03-21T07:58:23;101496.66;;;9.35;94.68
70900;BME280;67902;52.154;5.430;2023-03-21T08:00:51;101489.34;;;9.35;94.21
70900;BME280;67902;52.154;5.430;2023-03-21T08:03:18;101479.34;;;9.36;94.54
70900;BME280;67902;52.154;5.430;2023-03-21T08:05:45;101482.66;;;9.38;94.40
70900;BME280;67902;52.154;5.430;2023-03-21T08:08:11;101480.19;;;9.36;93.99
70900;BME280;67902;52.154;5.430;2023-03-21T08:10:38;101478.09;;;9.38;93.98
70900;BME280;67902;52.154;5.430;2023-03-21T08:13:07;101468.28;;;9.44;93.86
70900;BME280;67902;52.154;5.430;2023-03-21T08:15:33;101477.59;;;9.48;94.08
70900;BME280;67902;52.154;5.430;2023-03-21T08:17:59;101483.00;;;9.48;93.60
70900;BME280;67902;52.154;5.430;2023-03-21T08:20:26;101484.44;;;9.50;93.64
70900;BME280;67902;52.154;5.430;2023-03-21T08:22:53;101479.63;;;9.52;93.58
70900;BME280;67902;52.154;5.430;2023-03-21T08:25:20;101484.41;;;9.57;93.66
70900;BME280;67902;52.154;5.430;2023-03-21T08:27:48;101474.38;;;9.57;93.71
70900;BME280;67902;52.154;5.430;2023-03-21T08:30:18;101472.50;;;9.58;93.44
70900;BME280;67902;52.154;5.430;2023-03-21T08:32:44;101466.06;;;9.59;93.70
70900;BME280;67902;52.154;5.430;2023-03-21T08:35:13;101463.97;;;9.61;93.37
70900;BME280;67902;52.154;5.430;2023-03-21T08:37:41;101472.06;;;9.61;93.06
70900;BME280;67902;52.154;5.430;2023-03-21T08:40:14;101452.69;;;9.64;93.88
70900;BME280;67902;52.154;5.430;2023-03-21T08:42:42;101460.81;;;9.64;92.87
70900;BME280;67902;52.154;5.430;2023-03-21T08:45:10;101476.59;;;9.67;93.45
70900;BME280;67902;52.154;5.430;2023-03-21T08:47:37;101467.44;;;9.68;93.87
70900;BME280;67902;52.154;5.430;2023-03-21T08:50:06;101470.31;;;9.73;93.40
70900;BME280;67902;52.154;5.430;2023-03-21T08:52:33;101462.56;;;9.76;92.80
70900;BME280;67902;52.154;5.430;2023-03-21T08:55:00;101459.88;;;9.76;92.69
70900;BME280;67902;52.154;5.430;2023-03-21T08:57:28;101452.13;;;9.80;92.49
70900;BME280;67902;52.154;5.430;2023-03-21T08:59:54;101443.09;;;9.86;92.76
70900;BME280;67902;52.154;5.430;2023-03-21T09:02:21;101433.91;;;9.94;92.03
70900;BME280;67902;52.154;5.430;2023-03-21T09:04:47;101440.88;;;10.01;91.34
70900;BME280;67902;52.154;5.430;2023-03-21T09:07:14;101427.94;;;10.03;91.66
70900;BME280;67902;52.154;5.430;2023-03-21T09:09:43;101440.03;;;10.01;91.26
70900;BME280;67902;52.154;5.430;2023-03-21T09:12:12;101425.09;;;9.98;90.74
70900;BME280;67902;52.154;5.430;2023-03-21T09:14:42;101431.78;;;9.96;90.66
70900;BME280;67902;52.154;5.430;2023-03-21T09:17:08;101415.75;;;9.94;91.22
70900;BME280;67902;52.154;5.430;2023-03-21T09:19:36;101423.88;;;9.94;90.58
70900;BME280;67902;52.154;5.430;2023-03-21T09:22:03;101417.66;;;9.94;91.63
70900;BME280;67902;52.154;5.430;2023-03-21T09:24:30;101423.44;;;9.97;90.97
70900;BME280;67902;52.154;5.430;2023-03-21T09:26:56;101409.00;;;10.03;91.02
70900;BME280;67902;52.154;5.430;2023-03-21T09:29:23;101409.13;;;10.08;90.53
70900;BME280;67902;52.154;5.430;2023-03-21T09:31:50;101407.06;;;10.10;90.32
70900;BME280;67902;52.154;5.430;2023-03-21T09:34:18;101406.16;;;10.16;90.49
70900;BME280;67902;52.154;5.430;2023-03-21T09:36:45;101399.00;;;10.22;89.25
70900;BME280;67902;52.154;5.430;2023-03-21T09:39:13;101400.47;;;10.24;89.75
70900;BME280;67902;52.154;5.430;2023-03-21T09:41:48;101404.78;;;10.25;89.04
70900;BME280;67902;52.154;5.430;2023-03-21T09:47:21;101408.47;;;10.31;89.17
70900;BME280;67902;52.154;5.430;2023-03-21T09:49:55;101393.31;;;10.41;89.00
70900;BME280;67902;52.154;5.430;2023-03-21T09:52:50;101393.25;;;10.48;89.76
70900;BME280;67902;52.154;5.430;2023-03-21T09:55:23;101389.84;;;10.53;88.69
70900;BME280;67902;52.154;5.430;2023-03-21T09:58:03;101399.41;;;10.55;89.08
70900;BME280;67902;52.154;5.430;2023-03-21T10:00:37;101398.94;;;10.58;89.63
70900;BME280;67902;52.154;5.430;2023-03-21T10:03:15;101393.88;;;10.62;88.14
70900;BME280;67902;52.154;5.430;2023-03-21T10:05:45;101389.38;;;10.56;88.20
70900;BME280;67902;52.154;5.430;2023-03-21T10:08:19;101394.22;;;10.54;88.84
70900;BME280;67902;52.154;5.430;2023-03-21T10:10:53;101383.97;;;10.56;87.95
70900;BME280;67902;52.154;5.430;2023-03-21T10:13:26;101396.00;;;10.60;88.23
70900;BME280;67902;52.154;5.430;2023-03-21T10:15:56;101387.53;;;10.68;87.51
70900;BME280;67902;52.154;5.430;2023-03-21T10:18:26;101394.66;;;10.80;86.71
70900;BME280;67902;52.154;5.430;2023-03-21T10:20:55;101396.78;;;10.90;85.93
70900;BME280;67902;52.154;5.430;2023-03-21T10:23:26;101402.22;;;11.01;86.37
70900;BME280;67902;52.154;5.430;2023-03-21T10:25:57;101389.50;;;11.02;85.94
70900;BME280;67902;52.154;5.430;2023-03-21T10:28:27;101383.63;;;11.05;86.93
70900;BME280;67902;52.154;5.430;2023-03-21T10:31:07;101402.84;;;11.15;84.56
70900;BME280;67902;52.154;5.430;2023-03-21T10:33:41;101391.41;;;11.13;86.00
70900;BME280;67902;52.154;5.430;2023-03-21T10:36:29;101383.75;;;11.22;85.11
70900;BME280;67902;52.154;5.430;2023-03-21T10:39:14;101377.03;;;11.24;85.15
70900;BME280;67902;52.154;5.430;2023-03-21T10:41:42;101373.38;;;11.19;85.49
70900;BME280;67902;52.154;5.430;2023-03-21T10:44:13;101359.59;;;11.20;84.48
70900;BME280;67902;52.154;5.430;2023-03-21T10:46:56;101370.22;;;11.33;84.98
70900;BME280;67902;52.154;5.430;2023-03-21T10:49:23;101355.34;;;11.47;84.21
70900;BME280;67902;52.154;5.430;2023-03-21T10:51:57;101369.81;;;11.76;83.24
70900;BME280;67902;52.154;5.430;2023-03-21T10:54:28;101375.47;;;11.98;81.77
70900;BME280;67902;52.154;5.430;2023-03-21T10:59:42;101364.91;;;12.13;81.14
70900;BME280;67902;52.154;5.430;2023-03-21T11:02:18;101365.59;;;12.20;81.13
70900;BME280;67902;52.154;5.430;2023-03-21T11:04:46;101373.44;;;12.05;80.79
70900;BME280;67902;52.154;5.430;2023-03-21T11:07:14;101355.28;;;11.94;80.27
70900;BME280;67902;52.154;5.430;2023-03-21T11:09:48;101364.25;;;11.94;81.63
70900;BME280;67902;52.154;5.430;2023-03-21T11:14:54;101357.75;;;12.07;79.87
70900;BME280;67902;52.154;5.430;2023-03-21T11:17:27;101360.16;;;12.20;80.75
70900;BME280;67902;52.154;5.430;2023-03-21T11:20:00;101359.53;;;12.30;80.92
70900;BME280;67902;52.154;5.430;2023-03-21T11:22:38;101366.00;;;12.40;79.58
70900;BME280;67902;52.154;5.430;2023-03-21T11:25:35;101357.25;;;12.38;80.07
70900;BME280;67902;52.154;5.430;2023-03-21T11:28:06;101377.50;;;12.47;79.50
70900;BME280;67902;52.154;5.430;2023-03-21T11:30:34;101350.47;;;12.69;78.61
70900;BME280;67902;52.154;5.430;2023-03-21T11:33:02;101346.06;;;12.96;78.78
70900;BME280;67902;52.154;5.430;2023-03-21T11:35:37;101345.16;;;13.24;77.15
70900;BME280;67902;52.154;5.430;2023-03-21T11:38:05;101349.06;;;13.50;77.14
70900;BME280;67902;52.154;5.430;2023-03-21T11:40:53;101344.44;;;13.50;77.93
70900;BME280;67902;52.154;5.430;2023-03-21T11:46:15;101326.53;;;13.16;75.86
70900;BME280;67902;52.154;5.430;2023-03-21T11:48:44;101324.88;;;13.15;77.06
70900;BME280;67902;52.154;5.430;2023-03-21T11:51:37;101317.28;;;13.17;79.29
70900;BME280;67902;52.154;5.430;2023-03-21T11:57:13;101313.81;;;13.38;75.74
70900;BME280;67902;52.154;5.430;2023-03-21T12:05:18;101318.94;;;12.85;77.48
70900;BME280;67902;52.154;5.430;2023-03-21T12:08:23;101331.97;;;12.83;78.24
70900;BME280;67902;52.154;5.430;2023-03-21T12:16:35;101321.31;;;12.48;78.56
70900;BME280;67902;52.154;5.430;2023-03-21T12:22:03;101314.50;;;12.95;77.22
70900;BME280;67902;52.154;5.430;2023-03-21T12:32:50;101307.91;;;12.74;76.73
70900;BME280;67902;52.154;5.430;2023-03-21T12:38:24;101298.84;;;13.19;76.92
70900;BME280;67902;52.154;5.430;2023-03-21T12:44:03;101290.97;;;13.39;76.27
70900;BME280;67902;52.154;5.430;2023-03-21T12:46:44;101291.00;;;13.61;74.06
70900;BME280;67902;52.154;5.430;2023-03-21T12:49:21;101287.25;;;13.88;73.33
70900;BME280;67902;52.154;5.430;2023-03-21T12:51:55;101288.50;;;14.56;72.67
70900;BME280;67902;52.154;5.430;2023-03-21T12:54:27;101272.84;;;15.10;67.18
70900;BME280;67902;52.154;5.430;2023-03-21T12:57:09;101272.44;;;16.00;62.71
70900;BME280;67902;52.154;5.430;2023-03-21T12:59:43;101273.38;;;16.56;61.39
70900;BME280;67902;52.154;5.430;2023-03-21T13:02:35;101273.09;;;16.63;61.30
70900;BME280;67902;52.154;5.430;2023-03-21T13:05:17;101265.97;;;16.42;65.86
70900;BME280;67902;52.154;5.430;2023-03-21T13:07:50;101259.97;;;16.80;60.67
70900;BME280;67902;52.154;5.430;2023-03-21T13:10:20;101256.66;;;16.28;60.41
70900;BME280;67902;52.154;5.430;2023-03-21T13:15:52;101251.13;;;15.92;61.69
70900;BME280;67902;52.154;5.430;2023-03-21T13:21:12;101239.88;;;15.74;62.52
70900;BME280;67902;52.154;5.430;2023-03-21T13:23:40;101244.38;;;16.25;63.23
70900;BME280;67902;52.154;5.430;2023-03-21T13:26:08;101237.00;;;16.76;60.06
70900;BME280;67902;52.154;5.430;2023-03-21T13:28:39;101236.69;;;16.32;58.42
70900;BME280;67902;52.154;5.430;2023-03-21T13:31:21;101227.28;;;15.62;61.15
70900;BME280;67902;52.154;5.430;2023-03-21T13:33:52;101236.69;;;15.35;59.75
70900;BME280;67902;52.154;5.430;2023-03-21T13:36:29;101236.97;;;14.91;62.19
70900;BME280;67902;52.154;5.430;2023-03-21T13:39:02;101232.00;;;14.78;61.79
70900;BME280;67902;52.154;5.430;2023-03-21T13:41:34;101235.75;;;15.14;61.65
70900;BME280;67902;52.154;5.430;2023-03-21T13:59:42;101220.94;;;14.58;62.42
70900;BME280;67902;52.154;5.430;2023-03-21T14:04:40;101214.03;;;14.19;62.97
70900;BME280;67902;52.154;5.430;2023-03-21T14:07:28;101210.72;;;14.12;64.80
70900;BME280;67902;52.154;5.430;2023-03-21T14:09:59;101208.34;;;13.93;63.35
70900;BME280;67902;52.154;5.430;2023-03-21T14:12:29;101205.34;;;13.95;64.88
70900;BME280;67902;52.154;5.430;2023-03-21T14:15:05;101199.09;;;13.94;63.56
70900;BME280;67902;52.154;5.430;2023-03-21T14:17:55;101206.69;;;13.92;65.19
70900;BME280;67902;52.154;5.430;2023-03-21T14:20:29;101195.00;;;13.92;65.30
70900;BME280;67902;52.154;5.430;2023-03-21T14:22:56;101201.34;;;14.03;65.08
70900;BME280;67902;52.154;5.430;2023-03-21T14:25:25;101203.09;;;13.87;65.62
70900;BME280;67902;52.154;5.430;2023-03-21T14:28:12;101206.63;;;13.61;65.73
70900;BME280;67902;52.154;5.430;2023-03-21T14:30:41;101207.00;;;13.48;65.87
70900;BME280;67902;52.154;5.430;2023-03-21T14:33:20;101199.94;;;13.47;66.74
70900;BME280;67902;52.154;5.430;2023-03-21T14:35:48;101200.38;;;13.60;67.08
70900;BME280;67902;52.154;5.430;2023-03-21T14:38:21;101194.97;;;13.65;65.94
70900;BME280;67902;52.154;5.430;2023-03-21T14:40:51;101187.81;;;13.59;65.46